»·PEaware :: N7355A KBUR-KLAS

N7355A :: KBUR-KLAS

FLIGHT INFORMATION

Flight Status: Arrived
Operator: Privately registered:
United States
More flights under this callsign
Pilot: Monte T. (31546)
Aircraft: CESSNA 510 CITATION MUSTANG
(C510)
More flights by this aircraft type
Origin: KBUR Bob Hope-Burbank
United States
Destination: KLAS McCarran Intl
United States
More flights between these airports :: More routes between these airports
Route: +SLAPP2 MISEN KEPEC6
File this flight plan on PilotEdge
Remarks:
Altitude:
(Current/Filed)
24,000ft
Speed:
(Current/Filed)
250kts
Departed: 21-Nov-20 02:43 PM
Arrived: 21-Nov-20 03:38 PM
Distance/Time
Traveled:
195nm/0:55
Distance/Time
To Go:
Arrived

Flight Plot

Page will automatically refresh every two minutes.

Flight plan parsing failed; only flown route is shown


Map Options




Map Legend


Flown Route
Filed Route
Departure Airport
Arrival Airport
Navaid (VOR, NDB)
Fix

Horizontal Profiles

Position Reports

Time Latitude Longitude Heading Altitude Ground
Speed
21-Nov-20 13:51 34.200207 -118.358840 280 722ft 0kts
21-Nov-20 13:52 34.200207 -118.358840 280 722ft 0kts
21-Nov-20 13:53 34.200207 -118.358840 280 722ft 0kts
21-Nov-20 13:54 34.200207 -118.358840 280 722ft 0kts
21-Nov-20 13:55 34.200207 -118.358840 280 722ft 0kts
21-Nov-20 13:56 34.200207 -118.358840 280 722ft 0kts
21-Nov-20 13:57 34.200207 -118.358840 280 722ft 0kts
21-Nov-20 13:58 34.200207 -118.358840 280 722ft 0kts
21-Nov-20 13:59 34.200207 -118.358840 280 722ft 0kts
21-Nov-20 14:00 34.200207 -118.358840 280 722ft 0kts
21-Nov-20 14:01 34.200207 -118.358840 280 722ft 0kts
21-Nov-20 14:03 34.200207 -118.358840 280 722ft 0kts
21-Nov-20 14:04 34.200207 -118.358840 280 722ft 0kts
21-Nov-20 14:05 34.200207 -118.358840 280 722ft 0kts
21-Nov-20 14:06 34.200207 -118.358840 280 722ft 0kts
21-Nov-20 14:07 34.200207 -118.358840 280 722ft 0kts
21-Nov-20 14:08 34.200207 -118.358840 280 722ft 0kts
21-Nov-20 14:09 34.200207 -118.358840 280 722ft 0kts
21-Nov-20 14:10 34.200207 -118.358840 280 722ft 0kts
21-Nov-20 14:11 34.200207 -118.358840 280 722ft 0kts
21-Nov-20 14:12 34.200207 -118.358840 280 722ft 0kts
21-Nov-20 14:13 34.200207 -118.358840 280 722ft 0kts
21-Nov-20 14:14 34.200207 -118.358840 280 722ft 0kts
21-Nov-20 14:15 34.200207 -118.358840 280 722ft 0kts
21-Nov-20 14:16 34.200207 -118.358840 280 722ft 0kts
21-Nov-20 14:17 34.200207 -118.358840 280 722ft 0kts
21-Nov-20 14:17 34.200207 -118.358840 280 722ft 0kts
21-Nov-20 14:19 34.200207 -118.358840 280 722ft 0kts
21-Nov-20 14:19 34.200207 -118.358840 280 722ft 0kts
21-Nov-20 14:20 34.200207 -118.358840 280 722ft 0kts
21-Nov-20 14:22 34.200207 -118.358840 280 722ft 0kts
21-Nov-20 14:22 34.200207 -118.358840 280 722ft 0kts
21-Nov-20 14:24 34.200207 -118.358840 280 722ft 0kts
21-Nov-20 14:24 34.200207 -118.358840 280 722ft 0kts
21-Nov-20 14:26 34.200207 -118.358840 280 722ft 0kts
21-Nov-20 14:26 34.200207 -118.358840 280 722ft 0kts
21-Nov-20 14:27 34.200207 -118.358840 280 722ft 0kts
21-Nov-20 14:28 34.200207 -118.358840 280 722ft 0kts
21-Nov-20 14:29 34.200207 -118.358840 280 722ft 0kts
21-Nov-20 14:30 34.200207 -118.358840 280 722ft 0kts
21-Nov-20 14:31 34.200207 -118.358840 280 722ft 0kts
21-Nov-20 14:32 34.200207 -118.358840 280 722ft 0kts
21-Nov-20 14:33 34.200207 -118.358840 280 722ft 0kts
21-Nov-20 14:34 34.200207 -118.358840 280 722ft 0kts
21-Nov-20 14:35 34.199948 -118.359085 162 721ft 10kts
21-Nov-20 14:36 34.201406 -118.358601 347 726ft 13kts
21-Nov-20 14:37 34.206193 -118.359914 347 744ft 19kts
21-Nov-20 14:38 34.211357 -118.361274 10 768ft 13kts
21-Nov-20 14:39 34.211516 -118.361200 26 768ft 0kts
21-Nov-20 14:40 34.211516 -118.361200 26 768ft 0kts
21-Nov-20 14:41 34.211516 -118.361200 26 768ft 0kts
21-Nov-20 14:42 34.208020 -118.359296 167 751ft 80kts
21-Nov-20 14:43 34.168751 -118.369976 222 1842ft 220kts
21-Nov-20 14:44 34.117169 -118.425809 222 2926ft 266kts
21-Nov-20 14:45 34.133852 -118.499539 333 3889ft 275kts
21-Nov-20 14:46 34.204187 -118.473400 27 4894ft 277kts
21-Nov-20 14:47 34.272498 -118.429941 28 5895ft 278kts
21-Nov-20 14:48 34.340870 -118.386354 27 6894ft 278kts
21-Nov-20 14:49 34.412748 -118.355463 21 7876ft 278kts
21-Nov-20 14:50 34.481533 -118.314238 39 8872ft 279kts
21-Nov-20 14:51 34.541261 -118.254381 39 9870ft 279kts
21-Nov-20 14:52 34.603247 -118.192274 39 10017ft 297kts
21-Nov-20 14:53 34.662787 -118.129005 60 11215ft 279kts
21-Nov-20 14:54 34.680294 -118.038719 78 12526ft 273kts
21-Nov-20 14:55 34.693026 -117.948177 85 13822ft 272kts
21-Nov-20 14:56 34.698541 -117.858202 85 15380ft 264kts
21-Nov-20 14:57 34.703745 -117.771358 85 16942ft 260kts
21-Nov-20 14:58 34.707511 -117.682594 87 18559ft 257kts
21-Nov-20 14:59 34.710869 -117.596444 87 20143ft 255kts
21-Nov-20 15:00 34.714293 -117.511029 81 21726ft 252kts
21-Nov-20 15:01 34.735021 -117.430511 71 23322ft 248kts
21-Nov-20 15:02 34.756885 -117.348166 72 24012ft 276kts
21-Nov-20 15:03 34.781693 -117.254550 72 24003ft 302kts
21-Nov-20 15:04 34.807870 -117.155427 72 24001ft 311kts
21-Nov-20 15:05 34.834309 -117.054937 72 24000ft 313kts
21-Nov-20 15:06 34.860835 -116.953733 72 24000ft 314kts
21-Nov-20 15:07 34.887371 -116.852108 72 23900ft 318kts
21-Nov-20 15:08 34.914971 -116.745992 72 22995ft 330kts
21-Nov-20 15:09 34.961754 -116.653566 55 22998ft 318kts
21-Nov-20 15:10 35.011612 -116.565205 55 22999ft 315kts
21-Nov-20 15:11 35.061124 -116.477251 55 22999ft 314kts
21-Nov-20 15:12 35.112327 -116.391571 45 23003ft 313kts
21-Nov-20 15:13 35.175279 -116.312620 45 22059ft 332kts
21-Nov-20 15:14 35.241191 -116.229939 45 20484ft 345kts
21-Nov-20 15:15 35.308144 -116.145749 45 18889ft 345kts
21-Nov-20 15:16 35.374669 -116.061886 45 17293ft 342kts
21-Nov-20 15:17 35.440498 -115.978688 45 15698ft 339kts
21-Nov-20 15:18 35.505828 -115.895920 45 14100ft 336kts
21-Nov-20 15:19 35.570091 -115.814302 45 12993ft 321kts
21-Nov-20 15:20 35.630386 -115.737537 45 12998ft 307kts
21-Nov-20 15:21 35.689532 -115.662066 45 12999ft 305kts
21-Nov-20 15:22 35.748543 -115.587047 40 12992ft 305kts
21-Nov-20 15:23 35.830706 -115.571435 2 13000ft 305kts
21-Nov-20 15:24 35.915611 -115.566670 2 13000ft 305kts
21-Nov-20 15:25 35.984992 -115.522247 71 12372ft 317kts
21-Nov-20 15:26 36.016924 -115.419987 68 11385ft 321kts
21-Nov-20 15:27 36.026654 -115.312658 95 10148ft 323kts
21-Nov-20 15:28 36.018587 -115.202914 95 8993ft 320kts
21-Nov-20 15:29 36.011303 -115.095810 94 7972ft 271kts
21-Nov-20 15:30 36.006529 -115.017443 94 8417ft 190kts
21-Nov-20 15:31 36.002193 -114.944852 94 7296ft 230kts
21-Nov-20 15:32 36.013167 -114.871960 23 6120ft 231kts
21-Nov-20 15:33 36.055438 -114.913150 301 5968ft 213kts
21-Nov-20 15:34 36.064076 -114.987324 271 4988ft 227kts
21-Nov-20 15:35 36.070489 -115.062157 283 3296ft 155kts
21-Nov-20 15:36 36.073695 -115.107887 270 2387ft 115kts
21-Nov-20 15:37 36.073714 -115.135600 283 2070ft 18kts
21-Nov-20 15:38 36.074674 -115.134609 59 2064ft 0kts
21-Nov-20 15:39 36.074674 -115.134609 59 2064ft 0kts
21-Nov-20 15:40 36.074674 -115.134609 59 2064ft 0kts
21-Nov-20 15:41 36.074674 -115.134609 59 2064ft 0kts
21-Nov-20 15:42 36.075034 -115.132178 88 2057ft 18kts
21-Nov-20 15:43 36.075034 -115.127500 90 2047ft 0kts
21-Nov-20 15:44 36.075914 -115.125988 359 2042ft 14kts
21-Nov-20 15:45 36.078277 -115.124594 91 2035ft 17kts
21-Nov-20 15:46 36.078286 -115.123109 89 2032ft 0kts
21-Nov-20 15:47 36.078286 -115.123109 89 2032ft 0kts

Navigation Log

Ident Type
Flight plan parsing failed, navigation log unavailable